createdAt,value
2022-09-25T08:36:25.158Z,31.17
2022-09-25T08:38:58.562Z,32.72
2022-09-25T08:41:32.905Z,33.13
2022-09-25T08:44:37.467Z,32.03
2022-09-25T08:47:44.066Z,33.88
2022-09-25T08:50:22.327Z,32.20
2022-09-25T08:53:04.578Z,42.53
2022-09-25T08:55:53.712Z,32.10
2022-09-25T08:58:26.634Z,31.50
2022-09-25T09:00:55.847Z,31.98
2022-09-25T09:03:25.638Z,29.98
2022-09-25T09:06:04.689Z,29.77
2022-09-25T09:08:36.297Z,29.42
2022-09-25T09:11:17.967Z,27.73
2022-09-25T09:14:13.085Z,27.55
2022-09-25T09:16:54.493Z,23.45
2022-09-25T09:19:21.469Z,26.20
2022-09-25T09:22:06.303Z,23.83
2022-09-25T09:24:57.827Z,23.58
2022-09-25T09:27:36.996Z,20.25
2022-09-25T09:30:20.795Z,19.05
2022-09-25T09:33:04.150Z,17.98
2022-09-25T09:35:39.406Z,17.17
2022-09-25T09:38:28.338Z,15.73
2022-09-25T09:41:35.162Z,16.83
2022-09-25T09:44:39.322Z,16.67
2022-09-25T09:47:27.553Z,17.50
2022-09-25T09:50:06.888Z,14.82
2022-09-25T09:52:38.552Z,14.13
2022-09-25T09:55:34.488Z,14.87
2022-09-25T09:58:06.781Z,14.60
2022-09-25T10:00:34.834Z,16.30
2022-09-25T10:03:17.264Z,14.77
2022-09-25T10:05:49.777Z,14.98
2022-09-25T10:08:17.317Z,14.85
2022-09-25T10:10:55.014Z,14.05
2022-09-25T10:13:34.251Z,13.32
2022-09-25T10:16:14.619Z,14.30
2022-09-25T10:19:12.208Z,12.18
2022-09-25T10:21:45.010Z,15.25
2022-09-25T10:24:51.318Z,13.13
2022-09-25T10:27:31.330Z,14.32
2022-09-25T10:30:01.831Z,16.63
2022-09-25T10:32:29.811Z,14.05
2022-09-25T10:34:56.801Z,14.65
2022-09-25T10:37:34.737Z,13.77
2022-09-25T10:40:07.541Z,16.50
2022-09-25T10:42:42.269Z,15.40
2022-09-25T10:45:30.872Z,15.15
2022-09-25T10:48:16.673Z,14.82
2022-09-25T10:51:08.745Z,15.98
2022-09-25T10:53:35.669Z,14.40
2022-09-25T10:56:14.237Z,14.70
2022-09-25T10:58:50.676Z,13.73
2022-09-25T11:01:18.307Z,13.20
2022-09-25T11:03:59.522Z,13.57
2022-09-25T11:06:28.608Z,12.45
2022-09-25T11:09:12.202Z,13.02
2022-09-25T11:11:41.003Z,12.55
2022-09-25T11:14:32.548Z,12.77
2022-09-25T11:17:01.302Z,13.63
2022-09-25T11:19:31.017Z,14.32
2022-09-25T11:22:19.420Z,13.50
2022-09-25T11:25:13.492Z,12.75
2022-09-25T11:28:32.032Z,12.70
2022-09-25T11:31:21.600Z,15.52
2022-09-25T11:34:00.677Z,15.60
2022-09-25T11:36:41.423Z,14.20
2022-09-25T11:39:50.055Z,15.75
2022-09-25T11:42:38.981Z,12.48
2022-09-25T11:45:30.488Z,15.45
2022-09-25T11:48:05.330Z,13.23
2022-09-25T11:51:00.396Z,13.45
2022-09-25T11:53:45.665Z,14.98
2022-09-25T11:56:27.664Z,14.25
2022-09-25T11:59:13.483Z,12.50
2022-09-25T12:01:56.341Z,13.45
2022-09-25T12:04:32.444Z,14.18
2022-09-25T12:06:59.165Z,13.68
2022-09-25T12:09:42.552Z,14.57
2022-09-25T12:12:33.097Z,16.33
2022-09-25T12:15:20.381Z,14.75
2022-09-25T12:18:37.743Z,12.45
2022-09-25T12:21:07.179Z,14.98
2022-09-25T12:23:48.237Z,15.77
2022-09-25T12:26:32.762Z,16.05
2022-09-25T12:29:35.648Z,15.02
2022-09-25T12:32:05.402Z,13.23
2022-09-25T12:34:44.003Z,13.95
2022-09-25T12:37:43.416Z,13.85
2022-09-25T12:40:31.466Z,14.68
2022-09-25T12:43:03.865Z,14.20
2022-09-25T12:45:56.698Z,14.25
2022-09-25T12:48:35.050Z,14.25
2022-09-25T12:51:05.703Z,12.30
2022-09-25T12:53:43.237Z,13.80
2022-09-25T12:56:22.021Z,13.52
2022-09-25T12:59:06.382Z,15.85
2022-09-25T13:01:45.452Z,15.80
2022-09-25T13:04:55.451Z,14.05
2022-09-25T13:07:53.980Z,14.15
2022-09-25T13:10:41.859Z,15.23
2022-09-25T13:13:21.036Z,16.17
2022-09-25T13:15:57.245Z,17.08
2022-09-25T13:18:26.872Z,17.10
2022-09-25T13:20:58.567Z,16.08
2022-09-25T13:23:30.105Z,16.27
2022-09-25T13:26:18.669Z,17.33
2022-09-25T13:29:13.436Z,14.68
2022-09-25T13:31:44.745Z,14.75
2022-09-25T13:34:14.777Z,14.32
2022-09-25T13:36:49.075Z,15.60
2022-09-25T13:39:40.125Z,14.35
2022-09-25T13:42:27.796Z,16.40
2022-09-25T13:45:07.597Z,14.35
2022-09-25T13:47:38.231Z,14.70
2022-09-25T13:50:12.311Z,14.15
2022-09-25T13:52:39.594Z,14.15
2022-09-25T13:55:24.163Z,13.82
2022-09-25T13:58:00.148Z,14.70
2022-09-25T14:00:53.516Z,15.30
2022-09-25T14:03:44.585Z,13.43
2022-09-25T14:06:23.524Z,13.38
2022-09-25T14:08:53.243Z,12.27
2022-09-25T14:11:26.940Z,13.73
2022-09-25T14:13:56.754Z,14.23
2022-09-25T14:16:33.349Z,11.55
2022-09-25T14:19:04.786Z,12.18
2022-09-25T14:21:34.429Z,13.07
2022-09-25T14:24:34.473Z,12.43
2022-09-25T14:27:01.970Z,12.48
2022-09-25T14:29:38.608Z,13.82
2022-09-25T14:32:54.689Z,13.27
2022-09-25T14:35:53.810Z,13.02
2022-09-25T14:39:00.229Z,12.82
2022-09-25T14:42:17.189Z,14.13
2022-09-25T14:45:25.750Z,12.55
2022-09-25T14:47:59.642Z,12.52
2022-09-25T14:50:30.742Z,13.02
2022-09-25T14:53:08.233Z,12.50
2022-09-25T14:55:41.263Z,11.65
2022-09-25T14:58:13.507Z,13.50
2022-09-25T15:00:50.540Z,12.80
2022-09-25T15:03:21.581Z,13.60
2022-09-25T15:05:50.162Z,12.65
2022-09-25T15:08:43.333Z,12.15
2022-09-25T15:11:13.917Z,12.70
2022-09-25T15:13:41.001Z,12.68
2022-09-25T15:16:35.348Z,12.02
2022-09-25T15:19:08.134Z,11.95
2022-09-25T15:21:37.005Z,11.60
2022-09-25T15:24:10.285Z,12.60
2022-09-25T15:26:44.233Z,11.50
2022-09-25T15:29:21.317Z,13.57
2022-09-25T15:31:53.423Z,12.40
2022-09-25T15:34:23.789Z,10.65
2022-09-25T15:36:54.092Z,11.13
2022-09-25T15:39:26.010Z,11.35
2022-09-25T15:41:52.982Z,10.93
2022-09-25T15:44:26.490Z,12.63
2022-09-25T15:46:59.031Z,11.82
2022-09-25T15:52:00.284Z,12.55
2022-09-25T15:54:33.949Z,11.57
2022-09-25T15:57:03.536Z,12.57
2022-09-25T16:00:03.362Z,11.75
2022-09-25T16:02:56.507Z,12.25
2022-09-25T16:05:32.918Z,12.35
2022-09-25T16:08:29.980Z,11.38
2022-09-25T16:11:09.378Z,12.13
2022-09-25T16:13:40.949Z,12.05
2022-09-25T16:16:28.291Z,11.93
2022-09-25T16:18:57.308Z,11.00
2022-09-25T16:21:29.536Z,10.73
2022-09-25T16:23:58.214Z,11.68
2022-09-25T16:26:29.849Z,12.23
2022-09-25T16:29:03.065Z,12.20
2022-09-25T16:31:31.379Z,11.50
2022-09-25T16:34:00.476Z,12.48
2022-09-25T16:36:36.844Z,11.05
2022-09-25T16:39:09.485Z,11.77
2022-09-25T16:41:38.732Z,11.55
2022-09-25T16:44:17.754Z,10.02
2022-09-25T16:46:56.870Z,11.50
2022-09-25T16:49:24.919Z,11.25
2022-09-25T16:51:54.130Z,10.82
2022-09-25T16:54:22.560Z,11.57
2022-09-25T16:56:49.485Z,11.38
2022-09-25T16:59:24.263Z,10.63
2022-09-25T17:01:54.426Z,11.57
2022-09-25T17:04:28.025Z,10.45
2022-09-25T17:06:58.138Z,10.50
2022-09-25T17:09:26.313Z,10.48
2022-09-25T17:12:01.710Z,11.68
2022-09-25T17:14:31.467Z,12.15
2022-09-25T17:16:59.058Z,10.82
2022-09-25T17:19:26.549Z,10.40
2022-09-25T17:21:56.059Z,11.43
2022-09-25T17:24:26.811Z,12.48
2022-09-25T17:26:54.538Z,12.18
2022-09-25T17:29:21.857Z,12.65
2022-09-25T17:31:48.828Z,14.50
2022-09-25T17:34:24.633Z,12.73
2022-09-25T17:36:51.931Z,12.88
2022-09-25T17:39:19.157Z,14.10
2022-09-25T17:41:46.261Z,14.25
2022-09-25T17:44:21.766Z,16.40
2022-09-25T17:46:49.836Z,15.55
2022-09-25T17:49:17.233Z,14.95
2022-09-25T17:51:44.734Z,15.02
2022-09-25T17:54:13.330Z,14.43
2022-09-25T17:56:42.553Z,13.63
2022-09-25T17:59:09.666Z,13.73
2022-09-25T18:01:39.669Z,14.95
2022-09-25T18:04:27.120Z,15.07
2022-09-25T18:06:53.973Z,14.82
2022-09-25T18:09:21.292Z,14.52
2022-09-25T18:11:48.120Z,15.93
2022-09-25T18:14:16.252Z,15.35
2022-09-25T18:16:44.395Z,15.82
2022-09-25T18:19:35.925Z,16.23
2022-09-25T18:22:23.979Z,16.60
2022-09-25T18:24:52.790Z,15.00
2022-09-25T18:27:20.306Z,15.13
2022-09-25T18:29:47.382Z,16.67
2022-09-25T18:32:15.068Z,17.13
2022-09-25T18:34:42.548Z,15.90
2022-09-25T18:37:09.890Z,15.48
2022-09-25T18:39:37.267Z,15.35
2022-09-25T18:42:04.295Z,16.15
2022-09-25T18:44:38.534Z,15.02
2022-09-25T18:47:08.530Z,16.00
2022-09-25T18:49:37.433Z,15.73
2022-09-25T18:52:04.253Z,15.70
2022-09-25T18:54:31.088Z,15.60
2022-09-25T18:57:03.110Z,14.70
2022-09-25T18:59:30.461Z,14.88
2022-09-25T19:01:57.301Z,15.23
2022-09-25T19:04:25.763Z,14.52
2022-09-25T19:06:52.965Z,15.45
2022-09-25T19:09:24.460Z,16.50
2022-09-25T19:11:51.850Z,16.27
2022-09-25T19:14:19.895Z,15.27
2022-09-25T19:16:52.476Z,14.77
2022-09-25T19:19:19.496Z,15.00
2022-09-25T19:21:46.355Z,14.82
2022-09-25T19:24:13.367Z,14.13
2022-09-25T19:26:41.609Z,13.70
2022-09-25T19:29:08.718Z,12.82
2022-09-25T19:31:35.913Z,13.88
2022-09-25T19:34:03.421Z,14.15
2022-09-25T19:36:32.663Z,12.93
2022-09-25T19:39:00.961Z,13.18
2022-09-25T19:41:30.458Z,13.18
2022-09-25T19:44:02.523Z,12.77
2022-09-25T19:46:29.961Z,13.15
2022-09-25T19:48:59.863Z,12.95
2022-09-25T19:51:26.985Z,13.57
2022-09-25T19:53:54.205Z,13.10
2022-09-25T19:56:21.268Z,13.48
2022-09-25T19:58:50.702Z,13.77
2022-09-25T20:01:23.024Z,14.63
2022-09-25T20:03:50.283Z,13.23
2022-09-25T20:06:17.626Z,14.80
2022-09-25T20:08:44.822Z,14.80
2022-09-25T20:11:22.537Z,14.38
2022-09-25T20:13:51.221Z,16.48
2022-09-25T20:16:20.325Z,16.17
2022-09-25T20:18:49.055Z,15.15
2022-09-25T20:21:17.613Z,17.02
2022-09-25T20:23:44.610Z,16.40
2022-09-25T20:26:15.650Z,14.35
2022-09-25T20:28:43.702Z,14.50
2022-09-25T20:31:13.950Z,14.68
2022-09-25T20:33:44.863Z,16.10
2022-09-25T20:36:13.924Z,13.90
2022-09-25T20:38:41.026Z,16.00
2022-09-25T20:41:11.339Z,15.82
2022-09-25T20:43:38.815Z,15.25
2022-09-25T20:46:08.479Z,16.83
2022-09-25T20:48:37.883Z,16.60
2022-09-25T20:51:06.444Z,17.20
2022-09-25T20:53:33.276Z,17.02
2022-09-25T20:56:07.775Z,17.83
2022-09-25T20:58:36.345Z,17.45
2022-09-25T21:01:09.020Z,17.30
2022-09-25T21:03:38.228Z,17.15
2022-09-25T21:06:08.324Z,15.57
2022-09-25T21:08:35.301Z,15.35
2022-09-25T21:11:02.497Z,17.70
2022-09-25T21:13:30.348Z,15.70
2022-09-25T21:16:14.432Z,16.30
2022-09-25T21:18:42.196Z,19.60
2022-09-25T21:21:14.979Z,16.83
2022-09-25T21:23:43.556Z,18.55
2022-09-25T21:26:16.749Z,19.17
2022-09-25T21:28:51.007Z,17.27
2022-09-25T21:31:20.437Z,17.65
2022-09-25T21:33:47.789Z,19.55
